sensor_id;sensor_type;location;lat;lon;timestamp;P1;durP1;ratioP1;P2;durP2;ratioP2
26486;SDS011;14425;56.136;40.360;2024-03-23T00:54:17;36.70;;;17.48;;
26486;SDS011;14425;56.136;40.360;2024-03-23T00:56:42;32.60;;;16.27;;
26486;SDS011;14425;56.136;40.360;2024-03-23T00:59:08;37.63;;;16.27;;
26486;SDS011;14425;56.136;40.360;2024-03-23T01:01:33;31.48;;;16.27;;
26486;SDS011;14425;56.136;40.360;2024-03-23T01:03:59;38.55;;;19.23;;
26486;SDS011;14425;56.136;40.360;2024-03-23T01:06:24;38.08;;;19.35;;
26486;SDS011;14425;56.136;40.360;2024-03-23T01:08:50;33.10;;;17.25;;
26486;SDS011;14425;56.136;40.360;2024-03-23T01:11:15;36.42;;;17.67;;
26486;SDS011;14425;56.136;40.360;2024-03-23T01:13:41;31.52;;;17.02;;
26486;SDS011;14425;56.136;40.360;2024-03-23T01:16:06;35.40;;;17.00;;
26486;SDS011;14425;56.136;40.360;2024-03-23T01:18:31;30.92;;;15.48;;
26486;SDS011;14425;56.136;40.360;2024-03-23T01:20:58;33.03;;;18.08;;
26486;SDS011;14425;56.136;40.360;2024-03-23T01:23:23;34.08;;;16.58;;
26486;SDS011;14425;56.136;40.360;2024-03-23T01:25:52;31.95;;;16.17;;
26486;SDS011;14425;56.136;40.360;2024-03-23T01:28:19;36.42;;;18.73;;
26486;SDS011;14425;56.136;40.360;2024-03-23T01:30:44;38.70;;;17.77;;
26486;SDS011;14425;56.136;40.360;2024-03-23T01:33:10;34.65;;;16.98;;
26486;SDS011;14425;56.136;40.360;2024-03-23T01:35:35;37.78;;;18.38;;
26486;SDS011;14425;56.136;40.360;2024-03-23T01:38:00;35.65;;;17.98;;
26486;SDS011;14425;56.136;40.360;2024-03-23T01:40:26;37.95;;;17.23;;
26486;SDS011;14425;56.136;40.360;2024-03-23T01:42:56;34.30;;;18.60;;
26486;SDS011;14425;56.136;40.360;2024-03-23T01:45:21;30.65;;;15.48;;
26486;SDS011;14425;56.136;40.360;2024-03-23T01:47:48;31.70;;;16.00;;
26486;SDS011;14425;56.136;40.360;2024-03-23T01:50:14;33.78;;;16.48;;
26486;SDS011;14425;56.136;40.360;2024-03-23T01:52:39;36.85;;;19.10;;
26486;SDS011;14425;56.136;40.360;2024-03-23T01:55:05;36.70;;;17.35;;
26486;SDS011;14425;56.136;40.360;2024-03-23T01:57:30;38.42;;;17.92;;
26486;SDS011;14425;56.136;40.360;2024-03-23T01:59:56;41.15;;;18.90;;
26486;SDS011;14425;56.136;40.360;2024-03-23T02:02:22;35.75;;;17.63;;
26486;SDS011;14425;56.136;40.360;2024-03-23T02:04:47;29.00;;;15.48;;
26486;SDS011;14425;56.136;40.360;2024-03-23T02:07:12;37.75;;;19.17;;
26486;SDS011;14425;56.136;40.360;2024-03-23T02:09:38;37.10;;;18.60;;
26486;SDS011;14425;56.136;40.360;2024-03-23T02:12:03;37.83;;;18.42;;
26486;SDS011;14425;56.136;40.360;2024-03-23T02:14:29;36.45;;;18.63;;
26486;SDS011;14425;56.136;40.360;2024-03-23T02:16:55;34.25;;;16.10;;
26486;SDS011;14425;56.136;40.360;2024-03-23T02:19:20;30.70;;;15.95;;
26486;SDS011;14425;56.136;40.360;2024-03-23T02:21:46;38.75;;;18.10;;
26486;SDS011;14425;56.136;40.360;2024-03-23T02:24:12;37.35;;;18.33;;
26486;SDS011;14425;56.136;40.360;2024-03-23T02:26:38;40.45;;;20.02;;
26486;SDS011;14425;56.136;40.360;2024-03-23T02:29:03;33.33;;;17.38;;
26486;SDS011;14425;56.136;40.360;2024-03-23T02:31:29;36.65;;;16.02;;
26486;SDS011;14425;56.136;40.360;2024-03-23T02:33:54;33.28;;;16.50;;
26486;SDS011;14425;56.136;40.360;2024-03-23T02:36:20;36.45;;;17.63;;
26486;SDS011;14425;56.136;40.360;2024-03-23T02:38:46;37.63;;;18.60;;
26486;SDS011;14425;56.136;40.360;2024-03-23T02:41:11;38.65;;;20.05;;
26486;SDS011;14425;56.136;40.360;2024-03-23T02:43:37;36.55;;;17.50;;
26486;SDS011;14425;56.136;40.360;2024-03-23T02:46:03;41.53;;;17.73;;
26486;SDS011;14425;56.136;40.360;2024-03-23T02:48:29;35.15;;;17.38;;
26486;SDS011;14425;56.136;40.360;2024-03-23T02:50:55;36.75;;;18.08;;
26486;SDS011;14425;56.136;40.360;2024-03-23T02:53:20;36.55;;;16.10;;
26486;SDS011;14425;56.136;40.360;2024-03-23T02:55:45;37.85;;;19.75;;
26486;SDS011;14425;56.136;40.360;2024-03-23T02:58:11;34.35;;;17.20;;
26486;SDS011;14425;56.136;40.360;2024-03-23T03:00:36;41.13;;;20.63;;
26486;SDS011;14425;56.136;40.360;2024-03-23T03:03:02;36.90;;;17.58;;
26486;SDS011;14425;56.136;40.360;2024-03-23T03:05:28;32.55;;;16.95;;
26486;SDS011;14425;56.136;40.360;2024-03-23T03:07:53;32.38;;;16.88;;
26486;SDS011;14425;56.136;40.360;2024-03-23T03:10:19;35.95;;;18.70;;
26486;SDS011;14425;56.136;40.360;2024-03-23T03:12:44;38.38;;;17.83;;
26486;SDS011;14425;56.136;40.360;2024-03-23T03:15:10;36.00;;;18.08;;
26486;SDS011;14425;56.136;40.360;2024-03-23T03:17:35;40.70;;;18.35;;
26486;SDS011;14425;56.136;40.360;2024-03-23T03:20:01;40.50;;;19.10;;
26486;SDS011;14425;56.136;40.360;2024-03-23T03:22:28;38.03;;;20.40;;
26486;SDS011;14425;56.136;40.360;2024-03-23T03:24:54;41.92;;;22.77;;
26486;SDS011;14425;56.136;40.360;2024-03-23T03:27:19;38.53;;;17.48;;
26486;SDS011;14425;56.136;40.360;2024-03-23T03:29:45;39.53;;;18.40;;
26486;SDS011;14425;56.136;40.360;2024-03-23T03:32:11;35.97;;;17.98;;
26486;SDS011;14425;56.136;40.360;2024-03-23T03:34:36;38.53;;;18.05;;
26486;SDS011;14425;56.136;40.360;2024-03-23T03:37:02;40.22;;;20.27;;
26486;SDS011;14425;56.136;40.360;2024-03-23T03:39:28;37.10;;;17.77;;
26486;SDS011;14425;56.136;40.360;2024-03-23T03:41:53;37.05;;;19.25;;
26486;SDS011;14425;56.136;40.360;2024-03-23T03:44:18;39.33;;;20.13;;
26486;SDS011;14425;56.136;40.360;2024-03-23T03:46:44;38.97;;;18.85;;
26486;SDS011;14425;56.136;40.360;2024-03-23T03:49:09;40.05;;;17.73;;
26486;SDS011;14425;56.136;40.360;2024-03-23T03:51:35;39.35;;;18.20;;
26486;SDS011;14425;56.136;40.360;2024-03-23T03:54:01;40.85;;;20.13;;
26486;SDS011;14425;56.136;40.360;2024-03-23T03:56:26;39.33;;;18.58;;
26486;SDS011;14425;56.136;40.360;2024-03-23T03:58:52;39.90;;;20.60;;
26486;SDS011;14425;56.136;40.360;2024-03-23T04:01:18;42.15;;;19.75;;
26486;SDS011;14425;56.136;40.360;2024-03-23T04:03:43;36.33;;;19.15;;
26486;SDS011;14425;56.136;40.360;2024-03-23T04:06:09;36.05;;;18.33;;
26486;SDS011;14425;56.136;40.360;2024-03-23T04:08:35;35.83;;;18.88;;
26486;SDS011;14425;56.136;40.360;2024-03-23T04:11:00;34.22;;;17.48;;
26486;SDS011;14425;56.136;40.360;2024-03-23T04:13:26;34.25;;;17.42;;
26486;SDS011;14425;56.136;40.360;2024-03-23T04:15:55;38.65;;;18.88;;
26486;SDS011;14425;56.136;40.360;2024-03-23T04:18:20;38.88;;;18.63;;
26486;SDS011;14425;56.136;40.360;2024-03-23T04:20:47;32.22;;;17.38;;
26486;SDS011;14425;56.136;40.360;2024-03-23T04:23:12;40.03;;;19.38;;
26486;SDS011;14425;56.136;40.360;2024-03-23T04:25:37;36.83;;;17.35;;
26486;SDS011;14425;56.136;40.360;2024-03-23T04:28:03;36.58;;;18.60;;
26486;SDS011;14425;56.136;40.360;2024-03-23T04:30:29;36.50;;;18.05;;
26486;SDS011;14425;56.136;40.360;2024-03-23T04:32:55;35.78;;;17.75;;
26486;SDS011;14425;56.136;40.360;2024-03-23T04:35:22;33.58;;;16.40;;
26486;SDS011;14425;56.136;40.360;2024-03-23T04:37:50;41.83;;;18.50;;
26486;SDS011;14425;56.136;40.360;2024-03-23T04:40:17;37.20;;;19.75;;
26486;SDS011;14425;56.136;40.360;2024-03-23T04:42:43;35.72;;;18.08;;
26486;SDS011;14425;56.136;40.360;2024-03-23T04:45:09;33.67;;;16.58;;
26486;SDS011;14425;56.136;40.360;2024-03-23T04:47:36;34.10;;;19.05;;
26486;SDS011;14425;56.136;40.360;2024-03-23T04:50:02;34.17;;;18.10;;
26486;SDS011;14425;56.136;40.360;2024-03-23T04:52:28;36.67;;;19.13;;
26486;SDS011;14425;56.136;40.360;2024-03-23T04:54:54;29.15;;;15.63;;
26486;SDS011;14425;56.136;40.360;2024-03-23T04:57:19;31.77;;;16.58;;
26486;SDS011;14425;56.136;40.360;2024-03-23T04:59:45;35.03;;;16.75;;
26486;SDS011;14425;56.136;40.360;2024-03-23T05:02:10;38.33;;;18.13;;
26486;SDS011;14425;56.136;40.360;2024-03-23T05:04:36;37.13;;;17.73;;
26486;SDS011;14425;56.136;40.360;2024-03-23T05:07:02;33.85;;;16.15;;
26486;SDS011;14425;56.136;40.360;2024-03-23T05:09:29;37.50;;;16.83;;
26486;SDS011;14425;56.136;40.360;2024-03-23T05:11:55;29.17;;;15.45;;
26486;SDS011;14425;56.136;40.360;2024-03-23T05:14:21;31.55;;;17.02;;
26486;SDS011;14425;56.136;40.360;2024-03-23T05:16:47;23.23;;;12.63;;
26486;SDS011;14425;56.136;40.360;2024-03-23T05:19:12;30.08;;;15.40;;
26486;SDS011;14425;56.136;40.360;2024-03-23T05:21:39;31.83;;;16.63;;
26486;SDS011;14425;56.136;40.360;2024-03-23T05:24:05;32.45;;;16.17;;
26486;SDS011;14425;56.136;40.360;2024-03-23T05:26:30;32.47;;;14.95;;
26486;SDS011;14425;56.136;40.360;2024-03-23T05:28:56;28.00;;;13.45;;
26486;SDS011;14425;56.136;40.360;2024-03-23T05:31:25;30.35;;;15.75;;
26486;SDS011;14425;56.136;40.360;2024-03-23T05:33:50;27.60;;;14.38;;
26486;SDS011;14425;56.136;40.360;2024-03-23T05:36:16;29.77;;;15.57;;
26486;SDS011;14425;56.136;40.360;2024-03-23T05:38:42;31.08;;;15.90;;
26486;SDS011;14425;56.136;40.360;2024-03-23T05:41:07;32.13;;;15.10;;
26486;SDS011;14425;56.136;40.360;2024-03-23T05:43:33;32.20;;;15.85;;
26486;SDS011;14425;56.136;40.360;2024-03-23T05:45:59;29.35;;;15.02;;
26486;SDS011;14425;56.136;40.360;2024-03-23T05:48:25;26.90;;;14.32;;
26486;SDS011;14425;56.136;40.360;2024-03-23T05:50:50;31.38;;;16.00;;
26486;SDS011;14425;56.136;40.360;2024-03-23T05:53:16;25.88;;;14.38;;
26486;SDS011;14425;56.136;40.360;2024-03-23T05:55:42;26.45;;;13.98;;
26486;SDS011;14425;56.136;40.360;2024-03-23T05:58:07;25.30;;;13.75;;
26486;SDS011;14425;56.136;40.360;2024-03-23T06:00:33;28.20;;;13.70;;
26486;SDS011;14425;56.136;40.360;2024-03-23T06:02:58;22.10;;;13.00;;
26486;SDS011;14425;56.136;40.360;2024-03-23T06:05:24;27.35;;;13.27;;
26486;SDS011;14425;56.136;40.360;2024-03-23T06:07:49;30.52;;;13.88;;
26486;SDS011;14425;56.136;40.360;2024-03-23T06:10:15;22.45;;;11.77;;
26486;SDS011;14425;56.136;40.360;2024-03-23T06:12:40;23.48;;;11.13;;
26486;SDS011;14425;56.136;40.360;2024-03-23T06:15:06;25.83;;;13.38;;
26486;SDS011;14425;56.136;40.360;2024-03-23T06:17:38;25.90;;;13.52;;
26486;SDS011;14425;56.136;40.360;2024-03-23T06:20:03;28.85;;;14.73;;
26486;SDS011;14425;56.136;40.360;2024-03-23T06:22:29;25.23;;;12.88;;
26486;SDS011;14425;56.136;40.360;2024-03-23T06:24:55;24.38;;;12.43;;
26486;SDS011;14425;56.136;40.360;2024-03-23T06:27:21;19.98;;;11.98;;
26486;SDS011;14425;56.136;40.360;2024-03-23T06:29:46;25.05;;;12.73;;
26486;SDS011;14425;56.136;40.360;2024-03-23T06:32:11;22.83;;;12.85;;
26486;SDS011;14425;56.136;40.360;2024-03-23T06:34:37;23.48;;;12.20;;
26486;SDS011;14425;56.136;40.360;2024-03-23T06:37:02;24.17;;;12.98;;
26486;SDS011;14425;56.136;40.360;2024-03-23T06:39:37;23.63;;;14.32;;
26486;SDS011;14425;56.136;40.360;2024-03-23T06:42:03;19.67;;;12.13;;
26486;SDS011;14425;56.136;40.360;2024-03-23T06:44:28;23.13;;;12.70;;
26486;SDS011;14425;56.136;40.360;2024-03-23T06:46:54;23.58;;;12.90;;
26486;SDS011;14425;56.136;40.360;2024-03-23T06:49:20;19.15;;;10.48;;
26486;SDS011;14425;56.136;40.360;2024-03-23T06:51:45;20.85;;;12.50;;
26486;SDS011;14425;56.136;40.360;2024-03-23T06:54:11;21.00;;;11.63;;
26486;SDS011;14425;56.136;40.360;2024-03-23T06:56:36;21.67;;;13.05;;
26486;SDS011;14425;56.136;40.360;2024-03-23T06:59:02;24.92;;;12.30;;
26486;SDS011;14425;56.136;40.360;2024-03-23T07:01:27;25.23;;;12.10;;
26486;SDS011;14425;56.136;40.360;2024-03-23T07:03:54;22.90;;;12.05;;
26486;SDS011;14425;56.136;40.360;2024-03-23T07:06:19;20.23;;;11.77;;
26486;SDS011;14425;56.136;40.360;2024-03-23T07:08:45;24.20;;;11.80;;
26486;SDS011;14425;56.136;40.360;2024-03-23T07:11:10;19.40;;;11.68;;
26486;SDS011;14425;56.136;40.360;2024-03-23T07:13:36;19.02;;;10.65;;
26486;SDS011;14425;56.136;40.360;2024-03-23T07:16:01;21.45;;;11.82;;
26486;SDS011;14425;56.136;40.360;2024-03-23T07:18:27;17.63;;;10.68;;
26486;SDS011;14425;56.136;40.360;2024-03-23T07:20:53;18.05;;;10.25;;
26486;SDS011;14425;56.136;40.360;2024-03-23T07:23:19;17.58;;;10.20;;
26486;SDS011;14425;56.136;40.360;2024-03-23T07:25:45;18.10;;;10.90;;
26486;SDS011;14425;56.136;40.360;2024-03-23T07:28:10;23.55;;;13.13;;
26486;SDS011;14425;56.136;40.360;2024-03-23T07:30:36;18.42;;;10.15;;
26486;SDS011;14425;56.136;40.360;2024-03-23T07:33:01;21.92;;;11.50;;
26486;SDS011;14425;56.136;40.360;2024-03-23T07:35:27;18.38;;;10.93;;
26486;SDS011;14425;56.136;40.360;2024-03-23T07:37:52;19.15;;;11.93;;
26486;SDS011;14425;56.136;40.360;2024-03-23T07:40:18;20.67;;;12.25;;
26486;SDS011;14425;56.136;40.360;2024-03-23T07:42:43;22.02;;;10.93;;
26486;SDS011;14425;56.136;40.360;2024-03-23T07:45:09;21.33;;;10.43;;
26486;SDS011;14425;56.136;40.360;2024-03-23T07:47:34;21.15;;;12.07;;
26486;SDS011;14425;56.136;40.360;2024-03-23T07:50:00;24.63;;;12.93;;
26486;SDS011;14425;56.136;40.360;2024-03-23T07:52:28;22.30;;;13.98;;
26486;SDS011;14425;56.136;40.360;2024-03-23T07:54:54;20.65;;;11.23;;
26486;SDS011;14425;56.136;40.360;2024-03-23T07:57:19;22.13;;;12.90;;
26486;SDS011;14425;56.136;40.360;2024-03-23T07:59:47;20.17;;;12.05;;
26486;SDS011;14425;56.136;40.360;2024-03-23T08:02:13;19.40;;;12.20;;
26486;SDS011;14425;56.136;40.360;2024-03-23T08:04:38;22.00;;;12.40;;
26486;SDS011;14425;56.136;40.360;2024-03-23T08:07:04;17.45;;;10.38;;
26486;SDS011;14425;56.136;40.360;2024-03-23T08:09:29;23.88;;;11.23;;
26486;SDS011;14425;56.136;40.360;2024-03-23T08:11:55;23.73;;;12.10;;
26486;SDS011;14425;56.136;40.360;2024-03-23T08:14:20;20.73;;;13.70;;
26486;SDS011;14425;56.136;40.360;2024-03-23T08:16:46;26.75;;;13.55;;
26486;SDS011;14425;56.136;40.360;2024-03-23T08:19:14;19.42;;;10.32;;
26486;SDS011;14425;56.136;40.360;2024-03-23T08:21:40;19.02;;;11.18;;
26486;SDS011;14425;56.136;40.360;2024-03-23T08:24:05;18.33;;;12.52;;
26486;SDS011;14425;56.136;40.360;2024-03-23T08:26:31;22.13;;;11.75;;
26486;SDS011;14425;56.136;40.360;2024-03-23T08:28:56;19.25;;;11.85;;
26486;SDS011;14425;56.136;40.360;2024-03-23T08:31:22;21.33;;;11.32;;
26486;SDS011;14425;56.136;40.360;2024-03-23T08:33:48;19.58;;;10.48;;
26486;SDS011;14425;56.136;40.360;2024-03-23T08:36:13;21.70;;;12.52;;
26486;SDS011;14425;56.136;40.360;2024-03-23T08:38:40;18.50;;;10.48;;
26486;SDS011;14425;56.136;40.360;2024-03-23T08:41:09;16.23;;;10.73;;
26486;SDS011;14425;56.136;40.360;2024-03-23T08:43:38;20.27;;;12.73;;
26486;SDS011;14425;56.136;40.360;2024-03-23T08:48:31;24.50;;;10.55;;
26486;SDS011;14425;56.136;40.360;2024-03-23T08:51:02;21.67;;;12.65;;
26486;SDS011;14425;56.136;40.360;2024-03-23T08:53:29;19.02;;;11.13;;
26486;SDS011;14425;56.136;40.360;2024-03-23T08:55:55;24.02;;;13.50;;
26486;SDS011;14425;56.136;40.360;2024-03-23T08:58:21;20.30;;;12.52;;
26486;SDS011;14425;56.136;40.360;2024-03-23T09:00:47;18.67;;;12.05;;
26486;SDS011;14425;56.136;40.360;2024-03-23T09:03:12;19.60;;;10.85;;
26486;SDS011;14425;56.136;40.360;2024-03-23T09:05:41;18.60;;;12.95;;
26486;SDS011;14425;56.136;40.360;2024-03-23T09:08:06;22.73;;;12.05;;
26486;SDS011;14425;56.136;40.360;2024-03-23T09:10:34;22.88;;;11.52;;
26486;SDS011;14425;56.136;40.360;2024-03-23T09:13:00;19.50;;;11.50;;
26486;SDS011;14425;56.136;40.360;2024-03-23T09:15:25;18.95;;;11.50;;
26486;SDS011;14425;56.136;40.360;2024-03-23T09:17:51;18.08;;;10.05;;
26486;SDS011;14425;56.136;40.360;2024-03-23T09:20:16;18.48;;;11.35;;
26486;SDS011;14425;56.136;40.360;2024-03-23T09:22:42;21.73;;;10.90;;
26486;SDS011;14425;56.136;40.360;2024-03-23T09:25:07;17.42;;;10.23;;
26486;SDS011;14425;56.136;40.360;2024-03-23T09:27:33;16.33;;;10.05;;
26486;SDS011;14425;56.136;40.360;2024-03-23T09:29:58;20.60;;;11.25;;
26486;SDS011;14425;56.136;40.360;2024-03-23T09:32:24;20.35;;;11.10;;
26486;SDS011;14425;56.136;40.360;2024-03-23T09:34:49;18.90;;;11.88;;
26486;SDS011;14425;56.136;40.360;2024-03-23T09:37:15;13.75;;;8.52;;
26486;SDS011;14425;56.136;40.360;2024-03-23T09:39:40;15.13;;;10.20;;
26486;SDS011;14425;56.136;40.360;2024-03-23T09:42:07;17.52;;;11.45;;
26486;SDS011;14425;56.136;40.360;2024-03-23T09:44:32;19.30;;;10.75;;
26486;SDS011;14425;56.136;40.360;2024-03-23T09:46:58;19.20;;;10.35;;
26486;SDS011;14425;56.136;40.360;2024-03-23T09:49:23;18.23;;;9.73;;
26486;SDS011;14425;56.136;40.360;2024-03-23T09:51:50;17.50;;;11.00;;
26486;SDS011;14425;56.136;40.360;2024-03-23T09:54:16;14.75;;;9.35;;
26486;SDS011;14425;56.136;40.360;2024-03-23T09:56:41;16.55;;;10.25;;
26486;SDS011;14425;56.136;40.360;2024-03-23T09:59:07;20.17;;;9.57;;
26486;SDS011;14425;56.136;40.360;2024-03-23T10:01:32;18.20;;;10.85;;
26486;SDS011;14425;56.136;40.360;2024-03-23T10:03:58;13.73;;;8.23;;
26486;SDS011;14425;56.136;40.360;2024-03-23T10:06:23;20.13;;;10.77;;
26486;SDS011;14425;56.136;40.360;2024-03-23T10:08:52;16.33;;;9.75;;
26486;SDS011;14425;56.136;40.360;2024-03-23T10:11:18;16.48;;;9.55;;
26486;SDS011;14425;56.136;40.360;2024-03-23T10:13:44;17.13;;;9.70;;
26486;SDS011;14425;56.136;40.360;2024-03-23T10:16:14;17.75;;;10.82;;
26486;SDS011;14425;56.136;40.360;2024-03-23T10:18:49;16.05;;;9.77;;
26486;SDS011;14425;56.136;40.360;2024-03-23T10:21:15;17.17;;;10.20;;
26486;SDS011;14425;56.136;40.360;2024-03-23T10:23:41;17.63;;;10.98;;
26486;SDS011;14425;56.136;40.360;2024-03-23T10:31:17;13.55;;;9.07;;
26486;SDS011;14425;56.136;40.360;2024-03-23T10:33:48;17.27;;;10.75;;
26486;SDS011;14425;56.136;40.360;2024-03-23T10:36:14;16.58;;;9.90;;
26486;SDS011;14425;56.136;40.360;2024-03-23T10:38:41;15.88;;;10.48;;
26486;SDS011;14425;56.136;40.360;2024-03-23T10:41:10;15.60;;;10.48;;
26486;SDS011;14425;56.136;40.360;2024-03-23T10:43:36;19.80;;;10.93;;
26486;SDS011;14425;56.136;40.360;2024-03-23T10:46:02;14.50;;;9.88;;
26486;SDS011;14425;56.136;40.360;2024-03-23T10:48:28;16.40;;;10.38;;
26486;SDS011;14425;56.136;40.360;2024-03-23T10:50:53;16.85;;;9.90;;
26486;SDS011;14425;56.136;40.360;2024-03-23T10:53:20;16.40;;;10.15;;
26486;SDS011;14425;56.136;40.360;2024-03-23T10:55:48;15.48;;;10.35;;
26486;SDS011;14425;56.136;40.360;2024-03-23T10:58:13;16.50;;;10.05;;
26486;SDS011;14425;56.136;40.360;2024-03-23T11:00:39;17.70;;;10.82;;
26486;SDS011;14425;56.136;40.360;2024-03-23T11:05:48;17.48;;;11.82;;
26486;SDS011;14425;56.136;40.360;2024-03-23T11:08:29;11.32;;;7.65;;
26486;SDS011;14425;56.136;40.360;2024-03-23T11:10:59;16.30;;;9.48;;
26486;SDS011;14425;56.136;40.360;2024-03-23T11:21:51;15.35;;;9.40;;
26486;SDS011;14425;56.136;40.360;2024-03-23T11:24:17;12.50;;;8.20;;
26486;SDS011;14425;56.136;40.360;2024-03-23T11:26:43;15.27;;;9.73;;
26486;SDS011;14425;56.136;40.360;2024-03-23T11:29:09;14.38;;;9.55;;
26486;SDS011;14425;56.136;40.360;2024-03-23T11:31:37;14.13;;;9.38;;
26486;SDS011;14425;56.136;40.360;2024-03-23T11:34:03;17.00;;;9.95;;
26486;SDS011;14425;56.136;40.360;2024-03-23T11:36:29;14.77;;;8.95;;
26486;SDS011;14425;56.136;40.360;2024-03-23T11:38:55;14.25;;;9.85;;
26486;SDS011;14425;56.136;40.360;2024-03-23T11:41:20;12.70;;;8.23;;
26486;SDS011;14425;56.136;40.360;2024-03-23T11:43:46;14.70;;;9.98;;
26486;SDS011;14425;56.136;40.360;2024-03-23T11:46:11;15.02;;;9.55;;
26486;SDS011;14425;56.136;40.360;2024-03-23T11:48:37;17.45;;;9.27;;
26486;SDS011;14425;56.136;40.360;2024-03-23T11:51:02;15.63;;;9.50;;
26486;SDS011;14425;56.136;40.360;2024-03-23T11:53:28;13.27;;;8.85;;
26486;SDS011;14425;56.136;40.360;2024-03-23T11:55:55;16.63;;;10.55;;
26486;SDS011;14425;56.136;40.360;2024-03-23T11:58:21;14.30;;;10.30;;
26486;SDS011;14425;56.136;40.360;2024-03-23T12:00:51;13.68;;;8.73;;
26486;SDS011;14425;56.136;40.360;2024-03-23T12:03:20;15.50;;;9.75;;
26486;SDS011;14425;56.136;40.360;2024-03-23T12:05:48;14.25;;;8.93;;
26486;SDS011;14425;56.136;40.360;2024-03-23T12:10:47;12.48;;;7.45;;
26486;SDS011;14425;56.136;40.360;2024-03-23T12:13:14;14.57;;;8.80;;
26486;SDS011;14425;56.136;40.360;2024-03-23T12:15:40;11.20;;;8.75;;
26486;SDS011;14425;56.136;40.360;2024-03-23T12:18:06;12.77;;;10.02;;
26486;SDS011;14425;56.136;40.360;2024-03-23T12:20:31;14.80;;;9.57;;
26486;SDS011;14425;56.136;40.360;2024-03-23T12:23:07;13.48;;;9.50;;
26486;SDS011;14425;56.136;40.360;2024-03-23T12:25:34;12.77;;;8.70;;
26486;SDS011;14425;56.136;40.360;2024-03-23T12:27:59;14.98;;;9.57;;
26486;SDS011;14425;56.136;40.360;2024-03-23T12:30:25;14.23;;;9.55;;
26486;SDS011;14425;56.136;40.360;2024-03-23T12:32:50;12.88;;;7.95;;
26486;SDS011;14425;56.136;40.360;2024-03-23T12:35:15;14.82;;;9.40;;
26486;SDS011;14425;56.136;40.360;2024-03-23T12:37:41;13.30;;;8.43;;
26486;SDS011;14425;56.136;40.360;2024-03-23T12:40:06;13.45;;;8.25;;
26486;SDS011;14425;56.136;40.360;2024-03-23T12:42:32;12.55;;;8.15;;
26486;SDS011;14425;56.136;40.360;2024-03-23T12:44:57;12.30;;;8.57;;
26486;SDS011;14425;56.136;40.360;2024-03-23T12:47:23;13.13;;;8.55;;
26486;SDS011;14425;56.136;40.360;2024-03-23T12:49:48;10.32;;;7.70;;
26486;SDS011;14425;56.136;40.360;2024-03-23T12:52:15;12.02;;;8.02;;
26486;SDS011;14425;56.136;40.360;2024-03-23T12:54:40;14.10;;;9.07;;
26486;SDS011;14425;56.136;40.360;2024-03-23T12:57:06;16.58;;;8.45;;
26486;SDS011;14425;56.136;40.360;2024-03-23T12:59:32;15.00;;;8.75;;
26486;SDS011;14425;56.136;40.360;2024-03-23T13:02:00;12.00;;;7.22;;
26486;SDS011;14425;56.136;40.360;2024-03-23T13:04:26;13.52;;;9.82;;
26486;SDS011;14425;56.136;40.360;2024-03-23T13:06:51;14.25;;;8.80;;
26486;SDS011;14425;56.136;40.360;2024-03-23T13:09:17;14.20;;;8.00;;
26486;SDS011;14425;56.136;40.360;2024-03-23T13:11:42;17.15;;;8.93;;
26486;SDS011;14425;56.136;40.360;2024-03-23T13:14:08;11.50;;;7.47;;
26486;SDS011;14425;56.136;40.360;2024-03-23T13:16:33;10.93;;;7.60;;
26486;SDS011;14425;56.136;40.360;2024-03-23T13:18:58;11.85;;;8.55;;
26486;SDS011;14425;56.136;40.360;2024-03-23T13:21:26;9.88;;;7.40;;
26486;SDS011;14425;56.136;40.360;2024-03-23T13:23:51;13.48;;;9.60;;
26486;SDS011;14425;56.136;40.360;2024-03-23T13:26:17;13.70;;;9.40;;
26486;SDS011;14425;56.136;40.360;2024-03-23T13:28:42;11.20;;;6.68;;
26486;SDS011;14425;56.136;40.360;2024-03-23T13:31:08;12.55;;;8.70;;
26486;SDS011;14425;56.136;40.360;2024-03-23T13:33:33;12.50;;;7.55;;
26486;SDS011;14425;56.136;40.360;2024-03-23T13:35:59;10.75;;;7.93;;
26486;SDS011;14425;56.136;40.360;2024-03-23T13:38:25;14.82;;;8.95;;
26486;SDS011;14425;56.136;40.360;2024-03-23T13:40:51;15.90;;;9.55;;
26486;SDS011;14425;56.136;40.360;2024-03-23T13:43:17;15.25;;;9.27;;
26486;SDS011;14425;56.136;40.360;2024-03-23T13:45:42;14.18;;;9.75;;
26486;SDS011;14425;56.136;40.360;2024-03-23T13:48:08;15.48;;;9.38;;
26486;SDS011;14425;56.136;40.360;2024-03-23T13:50:33;13.32;;;9.27;;
26486;SDS011;14425;56.136;40.360;2024-03-23T13:52:59;12.73;;;8.65;;
26486;SDS011;14425;56.136;40.360;2024-03-23T13:55:24;14.05;;;9.35;;
26486;SDS011;14425;56.136;40.360;2024-03-23T13:57:49;14.85;;;9.55;;
26486;SDS011;14425;56.136;40.360;2024-03-23T14:00:16;17.83;;;10.55;;
26486;SDS011;14425;56.136;40.360;2024-03-23T14:02:44;15.43;;;10.20;;
26486;SDS011;14425;56.136;40.360;2024-03-23T14:05:09;13.18;;;8.40;;
26486;SDS011;14425;56.136;40.360;2024-03-23T14:07:36;14.30;;;9.48;;
26486;SDS011;14425;56.136;40.360;2024-03-23T14:10:02;13.18;;;9.40;;
26486;SDS011;14425;56.136;40.360;2024-03-23T14:12:28;12.98;;;7.97;;
26486;SDS011;14425;56.136;40.360;2024-03-23T14:14:54;14.07;;;9.27;;
26486;SDS011;14425;56.136;40.360;2024-03-23T14:17:20;13.88;;;9.20;;
26486;SDS011;14425;56.136;40.360;2024-03-23T14:19:45;16.05;;;10.05;;
26486;SDS011;14425;56.136;40.360;2024-03-23T14:22:11;16.00;;;10.40;;
26486;SDS011;14425;56.136;40.360;2024-03-23T14:24:36;19.65;;;11.10;;
26486;SDS011;14425;56.136;40.360;2024-03-23T14:27:02;20.52;;;11.65;;
26486;SDS011;14425;56.136;40.360;2024-03-23T14:29:30;16.38;;;11.10;;
26486;SDS011;14425;56.136;40.360;2024-03-23T14:31:56;17.95;;;11.07;;
26486;SDS011;14425;56.136;40.360;2024-03-23T14:34:21;18.92;;;11.77;;
26486;SDS011;14425;56.136;40.360;2024-03-23T14:36:47;19.25;;;11.55;;
26486;SDS011;14425;56.136;40.360;2024-03-23T14:39:12;22.13;;;13.32;;
26486;SDS011;14425;56.136;40.360;2024-03-23T14:41:38;25.60;;;12.65;;
26486;SDS011;14425;56.136;40.360;2024-03-23T14:44:03;17.80;;;10.77;;
26486;SDS011;14425;56.136;40.360;2024-03-23T14:46:29;15.05;;;9.63;;
26486;SDS011;14425;56.136;40.360;2024-03-23T14:48:55;17.05;;;10.13;;
26486;SDS011;14425;56.136;40.360;2024-03-23T14:51:20;17.33;;;10.45;;
26486;SDS011;14425;56.136;40.360;2024-03-23T14:53:47;20.90;;;12.15;;
26486;SDS011;14425;56.136;40.360;2024-03-23T14:56:13;25.05;;;13.38;;
26486;SDS011;14425;56.136;40.360;2024-03-23T14:58:41;19.50;;;10.55;;
26486;SDS011;14425;56.136;40.360;2024-03-23T15:01:08;21.02;;;12.15;;
26486;SDS011;14425;56.136;40.360;2024-03-23T15:03:37;12.68;;;7.90;;
26486;SDS011;14425;56.136;40.360;2024-03-23T15:06:04;19.88;;;12.52;;
26486;SDS011;14425;56.136;40.360;2024-03-23T15:08:30;20.60;;;12.43;;
26486;SDS011;14425;56.136;40.360;2024-03-23T15:10:59;20.30;;;11.63;;
26486;SDS011;14425;56.136;40.360;2024-03-23T15:13:25;18.83;;;12.48;;
26486;SDS011;14425;56.136;40.360;2024-03-23T15:15:51;20.52;;;12.30;;
26486;SDS011;14425;56.136;40.360;2024-03-23T15:18:17;16.13;;;11.00;;